sensor_id;sensor_type;location;lat;lon;timestamp;P1;durP1;ratioP1;P2;durP2;ratioP2
1925;SDS011;964;42.606;23.588;2022-09-28T00:01:45;8.63;;;4.53;;
1925;SDS011;964;42.606;23.588;2022-09-28T00:04:11;6.07;;;4.00;;
1925;SDS011;964;42.606;23.588;2022-09-28T00:06:39;3.97;;;3.57;;
1925;SDS011;964;42.606;23.588;2022-09-28T00:09:06;5.27;;;4.03;;
1925;SDS011;964;42.606;23.588;2022-09-28T00:11:33;7.87;;;4.00;;
1925;SDS011;964;42.606;23.588;2022-09-28T00:14:02;17.00;;;7.83;;
1925;SDS011;964;42.606;23.588;2022-09-28T00:16:32;13.10;;;7.43;;
1925;SDS011;964;42.606;23.588;2022-09-28T00:19:00;4.77;;;3.10;;
1925;SDS011;964;42.606;23.588;2022-09-28T00:21:29;5.10;;;3.73;;
1925;SDS011;964;42.606;23.588;2022-09-28T00:24:00;9.40;;;4.00;;
1925;SDS011;964;42.606;23.588;2022-09-28T00:26:38;7.90;;;4.80;;
1925;SDS011;964;42.606;23.588;2022-09-28T00:29:06;6.90;;;5.10;;
1925;SDS011;964;42.606;23.588;2022-09-28T00:31:39;5.10;;;3.93;;
1925;SDS011;964;42.606;23.588;2022-09-28T00:34:06;3.27;;;2.97;;
1925;SDS011;964;42.606;23.588;2022-09-28T00:36:33;6.20;;;3.20;;
1925;SDS011;964;42.606;23.588;2022-09-28T00:39:03;2.73;;;2.53;;
1925;SDS011;964;42.606;23.588;2022-09-28T00:41:31;2.90;;;2.50;;
1925;SDS011;964;42.606;23.588;2022-09-28T00:47:08;4.60;;;3.30;;
1925;SDS011;964;42.606;23.588;2022-09-28T00:49:47;10.97;;;7.57;;
1925;SDS011;964;42.606;23.588;2022-09-28T00:52:17;14.13;;;6.70;;
1925;SDS011;964;42.606;23.588;2022-09-28T00:54:50;8.77;;;5.60;;
1925;SDS011;964;42.606;23.588;2022-09-28T00:57:18;10.83;;;6.50;;
1925;SDS011;964;42.606;23.588;2022-09-28T00:59:48;7.90;;;4.50;;
1925;SDS011;964;42.606;23.588;2022-09-28T01:02:16;6.60;;;5.07;;
1925;SDS011;964;42.606;23.588;2022-09-28T01:04:43;7.90;;;4.77;;
1925;SDS011;964;42.606;23.588;2022-09-28T01:07:10;15.57;;;9.33;;
1925;SDS011;964;42.606;23.588;2022-09-28T01:09:38;16.70;;;10.60;;
1925;SDS011;964;42.606;23.588;2022-09-28T01:12:07;18.67;;;9.67;;
1925;SDS011;964;42.606;23.588;2022-09-28T01:14:34;9.57;;;7.53;;
1925;SDS011;964;42.606;23.588;2022-09-28T01:17:03;5.00;;;4.50;;
1925;SDS011;964;42.606;23.588;2022-09-28T01:19:46;4.90;;;4.40;;
1925;SDS011;964;42.606;23.588;2022-09-28T01:25:39;3.57;;;3.17;;
1925;SDS011;964;42.606;23.588;2022-09-28T01:28:10;3.80;;;3.00;;
1925;SDS011;964;42.606;23.588;2022-09-28T01:30:41;4.20;;;3.43;;
1925;SDS011;964;42.606;23.588;2022-09-28T01:33:11;3.60;;;3.27;;
1925;SDS011;964;42.606;23.588;2022-09-28T01:35:46;3.93;;;3.00;;
1925;SDS011;964;42.606;23.588;2022-09-28T01:38:18;3.10;;;2.80;;
1925;SDS011;964;42.606;23.588;2022-09-28T01:40:47;2.97;;;2.70;;
1925;SDS011;964;42.606;23.588;2022-09-28T01:43:18;7.43;;;3.10;;
1925;SDS011;964;42.606;23.588;2022-09-28T01:45:50;4.43;;;3.00;;
1925;SDS011;964;42.606;23.588;2022-09-28T01:48:22;9.30;;;3.97;;
1925;SDS011;964;42.606;23.588;2022-09-28T01:50:52;5.13;;;3.13;;
1925;SDS011;964;42.606;23.588;2022-09-28T01:53:24;7.30;;;4.60;;
1925;SDS011;964;42.606;23.588;2022-09-28T01:55:58;5.30;;;3.77;;
1925;SDS011;964;42.606;23.588;2022-09-28T01:58:31;7.53;;;3.40;;
1925;SDS011;964;42.606;23.588;2022-09-28T02:01:04;4.40;;;3.80;;
1925;SDS011;964;42.606;23.588;2022-09-28T02:03:35;6.60;;;5.27;;
1925;SDS011;964;42.606;23.588;2022-09-28T02:06:07;11.50;;;5.50;;
1925;SDS011;964;42.606;23.588;2022-09-28T02:08:42;10.80;;;6.40;;
1925;SDS011;964;42.606;23.588;2022-09-28T02:11:15;21.10;;;9.17;;
1925;SDS011;964;42.606;23.588;2022-09-28T02:13:45;15.03;;;8.87;;
1925;SDS011;964;42.606;23.588;2022-09-28T02:16:15;15.40;;;8.70;;
1925;SDS011;964;42.606;23.588;2022-09-28T02:18:46;18.40;;;8.67;;
1925;SDS011;964;42.606;23.588;2022-09-28T02:21:14;12.53;;;8.13;;
1925;SDS011;964;42.606;23.588;2022-09-28T02:23:50;8.17;;;4.10;;
1925;SDS011;964;42.606;23.588;2022-09-28T02:26:21;8.40;;;4.33;;
1925;SDS011;964;42.606;23.588;2022-09-28T02:28:56;6.73;;;4.70;;
1925;SDS011;964;42.606;23.588;2022-09-28T02:31:23;7.53;;;5.40;;
1925;SDS011;964;42.606;23.588;2022-09-28T02:33:51;5.73;;;5.23;;
1925;SDS011;964;42.606;23.588;2022-09-28T02:36:20;4.33;;;3.47;;
1925;SDS011;964;42.606;23.588;2022-09-28T02:38:48;6.23;;;3.90;;
1925;SDS011;964;42.606;23.588;2022-09-28T02:41:18;5.20;;;4.50;;
1925;SDS011;964;42.606;23.588;2022-09-28T02:43:59;4.57;;;4.17;;
1925;SDS011;964;42.606;23.588;2022-09-28T02:46:35;4.93;;;4.40;;
1925;SDS011;964;42.606;23.588;2022-09-28T02:49:14;5.00;;;4.27;;
1925;SDS011;964;42.606;23.588;2022-09-28T02:51:50;6.63;;;4.87;;
1925;SDS011;964;42.606;23.588;2022-09-28T02:54:35;6.27;;;4.70;;
1925;SDS011;964;42.606;23.588;2022-09-28T02:57:16;6.40;;;5.60;;
1925;SDS011;964;42.606;23.588;2022-09-28T02:59:58;7.67;;;5.87;;
1925;SDS011;964;42.606;23.588;2022-09-28T03:02:33;6.87;;;5.57;;
1925;SDS011;964;42.606;23.588;2022-09-28T03:05:09;11.33;;;4.90;;
1925;SDS011;964;42.606;23.588;2022-09-28T03:07:40;10.30;;;4.53;;
1925;SDS011;964;42.606;23.588;2022-09-28T03:10:14;6.20;;;3.80;;
1925;SDS011;964;42.606;23.588;2022-09-28T03:12:45;4.33;;;3.87;;
1925;SDS011;964;42.606;23.588;2022-09-28T03:15:22;4.10;;;3.67;;
1925;SDS011;964;42.606;23.588;2022-09-28T03:17:51;5.67;;;3.83;;
1925;SDS011;964;42.606;23.588;2022-09-28T03:20:18;5.77;;;4.10;;
1925;SDS011;964;42.606;23.588;2022-09-28T03:22:45;7.17;;;3.37;;
1925;SDS011;964;42.606;23.588;2022-09-28T03:25:12;6.73;;;3.30;;
1925;SDS011;964;42.606;23.588;2022-09-28T03:27:39;5.10;;;3.20;;
1925;SDS011;964;42.606;23.588;2022-09-28T03:30:07;3.20;;;2.90;;
1925;SDS011;964;42.606;23.588;2022-09-28T03:32:36;4.30;;;3.50;;
1925;SDS011;964;42.606;23.588;2022-09-28T03:35:03;4.73;;;3.40;;
1925;SDS011;964;42.606;23.588;2022-09-28T03:37:31;4.40;;;3.40;;
1925;SDS011;964;42.606;23.588;2022-09-28T03:39:58;2.90;;;2.67;;
1925;SDS011;964;42.606;23.588;2022-09-28T03:42:25;3.57;;;3.20;;
1925;SDS011;964;42.606;23.588;2022-09-28T03:44:51;3.67;;;3.27;;
1925;SDS011;964;42.606;23.588;2022-09-28T03:47:18;3.40;;;3.10;;
1925;SDS011;964;42.606;23.588;2022-09-28T03:49:46;2.83;;;2.50;;
1925;SDS011;964;42.606;23.588;2022-09-28T03:52:13;3.17;;;2.87;;
1925;SDS011;964;42.606;23.588;2022-09-28T03:54:40;6.67;;;3.03;;
1925;SDS011;964;42.606;23.588;2022-09-28T03:57:06;4.47;;;3.03;;
1925;SDS011;964;42.606;23.588;2022-09-28T03:59:33;4.50;;;2.80;;
1925;SDS011;964;42.606;23.588;2022-09-28T04:02:01;3.83;;;3.53;;
1925;SDS011;964;42.606;23.588;2022-09-28T04:04:29;5.27;;;3.00;;
1925;SDS011;964;42.606;23.588;2022-09-28T04:06:57;3.20;;;2.90;;
1925;SDS011;964;42.606;23.588;2022-09-28T04:09:24;4.53;;;3.63;;
1925;SDS011;964;42.606;23.588;2022-09-28T04:11:51;5.00;;;3.80;;
1925;SDS011;964;42.606;23.588;2022-09-28T04:14:17;14.27;;;4.20;;
1925;SDS011;964;42.606;23.588;2022-09-28T04:16:44;14.93;;;6.33;;
1925;SDS011;964;42.606;23.588;2022-09-28T04:19:12;11.17;;;5.17;;
1925;SDS011;964;42.606;23.588;2022-09-28T04:21:39;9.37;;;4.60;;
1925;SDS011;964;42.606;23.588;2022-09-28T04:24:07;7.50;;;5.50;;
1925;SDS011;964;42.606;23.588;2022-09-28T04:26:34;56.20;;;5.40;;
1925;SDS011;964;42.606;23.588;2022-09-28T04:29:01;49.30;;;7.97;;
1925;SDS011;964;42.606;23.588;2022-09-28T04:31:43;121.90;;;8.57;;
1925;SDS011;964;42.606;23.588;2022-09-28T04:34:12;102.43;;;7.30;;
1925;SDS011;964;42.606;23.588;2022-09-28T04:36:41;35.90;;;7.00;;
1925;SDS011;964;42.606;23.588;2022-09-28T04:39:09;24.70;;;10.30;;
1925;SDS011;964;42.606;23.588;2022-09-28T04:41:36;9.77;;;6.50;;
1925;SDS011;964;42.606;23.588;2022-09-28T04:44:03;27.67;;;10.53;;
1925;SDS011;964;42.606;23.588;2022-09-28T04:46:30;16.37;;;10.00;;
1925;SDS011;964;42.606;23.588;2022-09-28T04:48:58;11.03;;;7.37;;
1925;SDS011;964;42.606;23.588;2022-09-28T04:51:24;13.00;;;7.00;;
1925;SDS011;964;42.606;23.588;2022-09-28T04:53:51;10.13;;;6.17;;
1925;SDS011;964;42.606;23.588;2022-09-28T04:56:19;9.07;;;6.93;;
1925;SDS011;964;42.606;23.588;2022-09-28T04:58:46;10.73;;;7.33;;
1925;SDS011;964;42.606;23.588;2022-09-28T05:01:13;7.70;;;6.13;;
1925;SDS011;964;42.606;23.588;2022-09-28T05:03:42;10.30;;;7.13;;
1925;SDS011;964;42.606;23.588;2022-09-28T05:06:11;14.73;;;8.20;;
1925;SDS011;964;42.606;23.588;2022-09-28T05:08:39;13.90;;;8.17;;
1925;SDS011;964;42.606;23.588;2022-09-28T05:11:06;11.30;;;7.33;;
1925;SDS011;964;42.606;23.588;2022-09-28T05:13:39;7.93;;;5.83;;
1925;SDS011;964;42.606;23.588;2022-09-28T05:16:08;5.60;;;4.23;;
1925;SDS011;964;42.606;23.588;2022-09-28T05:18:35;5.73;;;4.20;;
1925;SDS011;964;42.606;23.588;2022-09-28T05:21:02;6.40;;;4.40;;
1925;SDS011;964;42.606;23.588;2022-09-28T05:23:29;4.57;;;3.70;;
1925;SDS011;964;42.606;23.588;2022-09-28T05:25:56;9.50;;;4.30;;
1925;SDS011;964;42.606;23.588;2022-09-28T05:28:27;4.27;;;3.87;;
1925;SDS011;964;42.606;23.588;2022-09-28T05:30:58;4.63;;;3.53;;
1925;SDS011;964;42.606;23.588;2022-09-28T05:33:25;5.97;;;4.03;;
1925;SDS011;964;42.606;23.588;2022-09-28T05:35:52;4.60;;;4.00;;
1925;SDS011;964;42.606;23.588;2022-09-28T05:38:19;4.80;;;4.30;;
1925;SDS011;964;42.606;23.588;2022-09-28T05:40:46;6.13;;;4.50;;
1925;SDS011;964;42.606;23.588;2022-09-28T05:43:13;8.10;;;5.47;;
1925;SDS011;964;42.606;23.588;2022-09-28T05:45:39;15.13;;;5.03;;
1925;SDS011;964;42.606;23.588;2022-09-28T05:48:07;5.90;;;4.80;;
1925;SDS011;964;42.606;23.588;2022-09-28T05:50:34;6.40;;;4.73;;
1925;SDS011;964;42.606;23.588;2022-09-28T05:53:02;8.20;;;4.60;;
1925;SDS011;964;42.606;23.588;2022-09-28T05:55:30;6.70;;;5.97;;
1925;SDS011;964;42.606;23.588;2022-09-28T05:57:57;7.20;;;5.50;;
1925;SDS011;964;42.606;23.588;2022-09-28T06:00:25;8.63;;;5.30;;
1925;SDS011;964;42.606;23.588;2022-09-28T06:02:56;6.77;;;5.03;;
1925;SDS011;964;42.606;23.588;2022-09-28T06:05:25;8.10;;;5.80;;
1925;SDS011;964;42.606;23.588;2022-09-28T06:07:53;7.33;;;5.17;;
1925;SDS011;964;42.606;23.588;2022-09-28T06:13:31;6.23;;;4.50;;
1925;SDS011;964;42.606;23.588;2022-09-28T06:15:59;6.97;;;4.73;;
1925;SDS011;964;42.606;23.588;2022-09-28T06:18:28;7.13;;;5.57;;
1925;SDS011;964;42.606;23.588;2022-09-28T06:20:56;8.33;;;4.80;;
1925;SDS011;964;42.606;23.588;2022-09-28T06:23:23;14.20;;;6.30;;
1925;SDS011;964;42.606;23.588;2022-09-28T06:25:50;5.73;;;5.20;;
1925;SDS011;964;42.606;23.588;2022-09-28T06:28:16;8.37;;;6.10;;
1925;SDS011;964;42.606;23.588;2022-09-28T06:30:43;5.23;;;4.73;;
1925;SDS011;964;42.606;23.588;2022-09-28T06:33:13;6.70;;;5.50;;
1925;SDS011;964;42.606;23.588;2022-09-28T06:35:40;8.63;;;5.80;;
1925;SDS011;964;42.606;23.588;2022-09-28T06:38:09;5.93;;;5.33;;
1925;SDS011;964;42.606;23.588;2022-09-28T06:40:36;6.80;;;5.60;;
1925;SDS011;964;42.606;23.588;2022-09-28T06:43:04;6.30;;;5.60;;
1925;SDS011;964;42.606;23.588;2022-09-28T06:45:34;6.20;;;4.87;;
1925;SDS011;964;42.606;23.588;2022-09-28T06:48:02;6.40;;;5.53;;
1925;SDS011;964;42.606;23.588;2022-09-28T06:50:31;6.87;;;5.47;;
1925;SDS011;964;42.606;23.588;2022-09-28T06:53:00;7.50;;;4.93;;
1925;SDS011;964;42.606;23.588;2022-09-28T06:55:28;5.87;;;4.70;;
1925;SDS011;964;42.606;23.588;2022-09-28T06:57:55;6.30;;;5.70;;
1925;SDS011;964;42.606;23.588;2022-09-28T07:00:23;5.73;;;5.23;;
1925;SDS011;964;42.606;23.588;2022-09-28T07:02:50;6.90;;;5.63;;
1925;SDS011;964;42.606;23.588;2022-09-28T07:05:17;5.50;;;4.80;;
1925;SDS011;964;42.606;23.588;2022-09-28T07:07:48;5.90;;;5.30;;
1925;SDS011;964;42.606;23.588;2022-09-28T07:10:14;6.90;;;4.77;;
1925;SDS011;964;42.606;23.588;2022-09-28T07:12:43;4.40;;;4.00;;
1925;SDS011;964;42.606;23.588;2022-09-28T07:15:11;5.10;;;4.67;;
1925;SDS011;964;42.606;23.588;2022-09-28T07:17:38;8.10;;;4.70;;
1925;SDS011;964;42.606;23.588;2022-09-28T07:20:05;4.60;;;4.07;;
1925;SDS011;964;42.606;23.588;2022-09-28T07:22:32;5.93;;;3.93;;
1925;SDS011;964;42.606;23.588;2022-09-28T07:24:59;5.30;;;3.60;;
1925;SDS011;964;42.606;23.588;2022-09-28T07:27:25;5.43;;;3.80;;
1925;SDS011;964;42.606;23.588;2022-09-28T07:29:54;4.70;;;4.30;;
1925;SDS011;964;42.606;23.588;2022-09-28T07:32:22;4.63;;;3.47;;
1925;SDS011;964;42.606;23.588;2022-09-28T07:34:49;3.60;;;2.90;;
1925;SDS011;964;42.606;23.588;2022-09-28T07:37:17;7.93;;;3.37;;
1925;SDS011;964;42.606;23.588;2022-09-28T07:39:44;3.53;;;3.10;;
1925;SDS011;964;42.606;23.588;2022-09-28T07:42:29;3.60;;;3.27;;
1925;SDS011;964;42.606;23.588;2022-09-28T07:44:57;3.67;;;3.37;;
1925;SDS011;964;42.606;23.588;2022-09-28T07:47:24;5.10;;;3.97;;
1925;SDS011;964;42.606;23.588;2022-09-28T07:49:52;5.53;;;4.37;;
1925;SDS011;964;42.606;23.588;2022-09-28T07:52:20;4.47;;;3.20;;
1925;SDS011;964;42.606;23.588;2022-09-28T07:54:50;15.10;;;4.63;;
1925;SDS011;964;42.606;23.588;2022-09-28T07:57:18;11.33;;;4.50;;
1925;SDS011;964;42.606;23.588;2022-09-28T07:59:45;22.63;;;7.63;;
1925;SDS011;964;42.606;23.588;2022-09-28T08:02:14;9.20;;;4.50;;
1925;SDS011;964;42.606;23.588;2022-09-28T08:04:44;4.60;;;4.20;;
1925;SDS011;964;42.606;23.588;2022-09-28T08:07:11;6.17;;;4.17;;
1925;SDS011;964;42.606;23.588;2022-09-28T08:09:38;4.33;;;3.70;;
1925;SDS011;964;42.606;23.588;2022-09-28T08:12:05;11.00;;;3.60;;
1925;SDS011;964;42.606;23.588;2022-09-28T08:14:32;4.97;;;3.30;;
1925;SDS011;964;42.606;23.588;2022-09-28T08:16:59;3.13;;;2.77;;
1925;SDS011;964;42.606;23.588;2022-09-28T08:19:27;7.90;;;3.40;;
1925;SDS011;964;42.606;23.588;2022-09-28T08:22:16;3.53;;;2.87;;
1925;SDS011;964;42.606;23.588;2022-09-28T08:24:43;9.93;;;2.97;;
1925;SDS011;964;42.606;23.588;2022-09-28T08:27:10;5.53;;;3.17;;
1925;SDS011;964;42.606;23.588;2022-09-28T08:29:37;4.60;;;2.90;;
1925;SDS011;964;42.606;23.588;2022-09-28T08:32:05;3.33;;;3.03;;
1925;SDS011;964;42.606;23.588;2022-09-28T08:34:34;4.80;;;2.60;;
1925;SDS011;964;42.606;23.588;2022-09-28T08:37:01;3.77;;;3.03;;
1925;SDS011;964;42.606;23.588;2022-09-28T08:39:29;2.93;;;2.60;;
1925;SDS011;964;42.606;23.588;2022-09-28T08:41:58;3.10;;;2.50;;
1925;SDS011;964;42.606;23.588;2022-09-28T08:44:40;2.80;;;2.40;;
1925;SDS011;964;42.606;23.588;2022-09-28T08:47:12;3.77;;;2.50;;
1925;SDS011;964;42.606;23.588;2022-09-28T08:49:58;5.33;;;2.77;;
1925;SDS011;964;42.606;23.588;2022-09-28T08:52:29;4.53;;;2.70;;
1925;SDS011;964;42.606;23.588;2022-09-28T08:55:01;3.90;;;2.63;;
1925;SDS011;964;42.606;23.588;2022-09-28T08:57:36;7.37;;;3.03;;
1925;SDS011;964;42.606;23.588;2022-09-28T09:00:10;2.67;;;2.47;;
1925;SDS011;964;42.606;23.588;2022-09-28T09:02:42;6.47;;;2.20;;
1925;SDS011;964;42.606;23.588;2022-09-28T09:05:12;2.20;;;2.00;;
1925;SDS011;964;42.606;23.588;2022-09-28T09:10:44;3.40;;;2.17;;
1925;SDS011;964;42.606;23.588;2022-09-28T09:13:29;3.67;;;2.83;;
1925;SDS011;964;42.606;23.588;2022-09-28T09:16:07;4.23;;;2.10;;
1925;SDS011;964;42.606;23.588;2022-09-28T09:18:42;5.00;;;1.90;;
1925;SDS011;964;42.606;23.588;2022-09-28T09:21:19;2.60;;;2.40;;
1925;SDS011;964;42.606;23.588;2022-09-28T09:24:03;3.63;;;3.27;;
1925;SDS011;964;42.606;23.588;2022-09-28T09:26:38;3.27;;;3.07;;
1925;SDS011;964;42.606;23.588;2022-09-28T09:29:11;4.83;;;3.40;;
1925;SDS011;964;42.606;23.588;2022-09-28T09:34:52;4.17;;;3.43;;
1925;SDS011;964;42.606;23.588;2022-09-28T09:37:46;3.70;;;3.40;;
1925;SDS011;964;42.606;23.588;2022-09-28T09:40:27;3.40;;;3.00;;
1925;SDS011;964;42.606;23.588;2022-09-28T09:43:10;2.90;;;2.70;;
1925;SDS011;964;42.606;23.588;2022-09-28T09:46:01;2.77;;;2.57;;
1925;SDS011;964;42.606;23.588;2022-09-28T09:48:38;2.90;;;2.53;;
1925;SDS011;964;42.606;23.588;2022-09-28T09:51:15;9.03;;;2.60;;
1925;SDS011;964;42.606;23.588;2022-09-28T09:53:51;3.03;;;2.30;;
1925;SDS011;964;42.606;23.588;2022-09-28T09:56:26;3.03;;;2.73;;
1925;SDS011;964;42.606;23.588;2022-09-28T09:58:59;7.30;;;4.50;;
1925;SDS011;964;42.606;23.588;2022-09-28T10:01:31;4.80;;;2.90;;
1925;SDS011;964;42.606;23.588;2022-09-28T10:04:01;3.90;;;2.73;;
1925;SDS011;964;42.606;23.588;2022-09-28T10:06:32;3.27;;;1.87;;
1925;SDS011;964;42.606;23.588;2022-09-28T10:09:04;2.60;;;1.87;;
1925;SDS011;964;42.606;23.588;2022-09-28T10:11:32;3.00;;;1.93;;
1925;SDS011;964;42.606;23.588;2022-09-28T10:14:03;2.17;;;1.50;;
1925;SDS011;964;42.606;23.588;2022-09-28T10:16:32;2.03;;;1.90;;
1925;SDS011;964;42.606;23.588;2022-09-28T10:19:01;3.43;;;2.00;;
1925;SDS011;964;42.606;23.588;2022-09-28T10:21:27;2.80;;;1.70;;
1925;SDS011;964;42.606;23.588;2022-09-28T10:23:56;4.00;;;1.87;;
1925;SDS011;964;42.606;23.588;2022-09-28T10:26:27;1.70;;;1.43;;
1925;SDS011;964;42.606;23.588;2022-09-28T10:28:59;3.20;;;2.10;;
1925;SDS011;964;42.606;23.588;2022-09-28T10:31:35;1.80;;;1.33;;
1925;SDS011;964;42.606;23.588;2022-09-28T10:34:03;1.90;;;1.80;;
1925;SDS011;964;42.606;23.588;2022-09-28T10:36:32;2.03;;;1.70;;
1925;SDS011;964;42.606;23.588;2022-09-28T10:39:18;1.70;;;1.47;;
1925;SDS011;964;42.606;23.588;2022-09-28T10:41:51;5.63;;;1.97;;
1925;SDS011;964;42.606;23.588;2022-09-28T10:44:19;3.70;;;1.87;;
1925;SDS011;964;42.606;23.588;2022-09-28T10:46:54;3.40;;;1.70;;
1925;SDS011;964;42.606;23.588;2022-09-28T10:49:21;3.00;;;1.60;;
1925;SDS011;964;42.606;23.588;2022-09-28T10:51:50;4.17;;;1.70;;
1925;SDS011;964;42.606;23.588;2022-09-28T10:54:20;2.93;;;1.50;;
1925;SDS011;964;42.606;23.588;2022-09-28T10:56:49;2.60;;;1.57;;
1925;SDS011;964;42.606;23.588;2022-09-28T10:59:23;2.03;;;1.53;;
1925;SDS011;964;42.606;23.588;2022-09-28T11:02:02;2.73;;;1.60;;
1925;SDS011;964;42.606;23.588;2022-09-28T11:04:39;3.50;;;1.30;;
1925;SDS011;964;42.606;23.588;2022-09-28T11:07:12;1.10;;;1.00;;
1925;SDS011;964;42.606;23.588;2022-09-28T11:09:45;1.20;;;1.10;;
1925;SDS011;964;42.606;23.588;2022-09-28T11:12:15;2.03;;;1.07;;
1925;SDS011;964;42.606;23.588;2022-09-28T11:14:44;1.27;;;0.73;;
1925;SDS011;964;42.606;23.588;2022-09-28T11:17:19;2.37;;;1.07;;
1925;SDS011;964;42.606;23.588;2022-09-28T11:19:51;1.90;;;1.00;;
1925;SDS011;964;42.606;23.588;2022-09-28T11:22:19;1.63;;;1.03;;
1925;SDS011;964;42.606;23.588;2022-09-28T11:25:00;1.50;;;1.00;;
1925;SDS011;964;42.606;23.588;2022-09-28T11:27:40;1.00;;;0.70;;
1925;SDS011;964;42.606;23.588;2022-09-28T11:30:20;3.60;;;1.17;;
1925;SDS011;964;42.606;23.588;2022-09-28T11:32:49;1.47;;;1.00;;
1925;SDS011;964;42.606;23.588;2022-09-28T11:35:18;1.00;;;0.90;;
1925;SDS011;964;42.606;23.588;2022-09-28T11:37:50;1.10;;;1.00;;
1925;SDS011;964;42.606;23.588;2022-09-28T11:40:37;1.67;;;1.00;;
1925;SDS011;964;42.606;23.588;2022-09-28T11:43:12;4.30;;;1.30;;
1925;SDS011;964;42.606;23.588;2022-09-28T11:45:47;1.00;;;0.90;;
1925;SDS011;964;42.606;23.588;2022-09-28T11:48:21;1.53;;;1.20;;
1925;SDS011;964;42.606;23.588;2022-09-28T11:50:51;1.90;;;1.10;;
1925;SDS011;964;42.606;23.588;2022-09-28T11:53:24;2.83;;;1.70;;
1925;SDS011;964;42.606;23.588;2022-09-28T11:55:56;1.60;;;1.50;;
1925;SDS011;964;42.606;23.588;2022-09-28T11:58:31;3.00;;;1.50;;
1925;SDS011;964;42.606;23.588;2022-09-28T12:01:02;1.77;;;1.30;;
1925;SDS011;964;42.606;23.588;2022-09-28T12:03:34;1.93;;;1.70;;
1925;SDS011;964;42.606;23.588;2022-09-28T12:06:06;2.70;;;1.87;;
1925;SDS011;964;42.606;23.588;2022-09-28T12:08:39;2.50;;;1.40;;
1925;SDS011;964;42.606;23.588;2022-09-28T12:11:10;1.73;;;1.30;;
1925;SDS011;964;42.606;23.588;2022-09-28T12:13:42;1.93;;;1.63;;
1925;SDS011;964;42.606;23.588;2022-09-28T12:16:13;1.77;;;1.20;;
1925;SDS011;964;42.606;23.588;2022-09-28T12:18:45;2.60;;;1.53;;
1925;SDS011;964;42.606;23.588;2022-09-28T12:21:25;1.33;;;1.20;;
1925;SDS011;964;42.606;23.588;2022-09-28T12:24:00;2.73;;;1.30;;
1925;SDS011;964;42.606;23.588;2022-09-28T12:26:33;3.57;;;1.47;;
1925;SDS011;964;42.606;23.588;2022-09-28T12:29:10;2.30;;;1.50;;
1925;SDS011;964;42.606;23.588;2022-09-28T12:31:44;1.77;;;1.43;;
1925;SDS011;964;42.606;23.588;2022-09-28T12:34:21;8.93;;;3.73;;
1925;SDS011;964;42.606;23.588;2022-09-28T12:36:49;1.73;;;1.63;;
1925;SDS011;964;42.606;23.588;2022-09-28T12:39:34;2.30;;;1.40;;
1925;SDS011;964;42.606;23.588;2022-09-28T12:42:13;1.97;;;1.73;;
1925;SDS011;964;42.606;23.588;2022-09-28T12:45:00;1.67;;;1.57;;
1925;SDS011;964;42.606;23.588;2022-09-28T12:48:02;2.27;;;1.73;;
1925;SDS011;964;42.606;23.588;2022-09-28T12:50:42;6.60;;;1.70;;
1925;SDS011;964;42.606;23.588;2022-09-28T12:53:24;1.70;;;1.60;;
1925;SDS011;964;42.606;23.588;2022-09-28T12:56:04;2.67;;;1.50;;
1925;SDS011;964;42.606;23.588;2022-09-28T12:58:42;1.70;;;1.60;;
1925;SDS011;964;42.606;23.588;2022-09-28T13:01:28;2.20;;;1.77;;
1925;SDS011;964;42.606;23.588;2022-09-28T13:04:12;1.83;;;1.50;;
1925;SDS011;964;42.606;23.588;2022-09-28T13:07:02;1.83;;;1.47;;
1925;SDS011;964;42.606;23.588;2022-09-28T13:09:33;2.03;;;1.50;;
1925;SDS011;964;42.606;23.588;2022-09-28T13:12:14;2.33;;;1.50;;
1925;SDS011;964;42.606;23.588;2022-09-28T13:14:57;2.20;;;1.57;;
1925;SDS011;964;42.606;23.588;2022-09-28T13:17:46;3.53;;;1.80;;
1925;SDS011;964;42.606;23.588;2022-09-28T13:20:21;2.87;;;1.40;;
1925;SDS011;964;42.606;23.588;2022-09-28T13:22:59;1.60;;;1.47;;
1925;SDS011;964;42.606;23.588;2022-09-28T13:25:38;1.37;;;1.27;;
1925;SDS011;964;42.606;23.588;2022-09-28T13:28:08;1.40;;;1.30;;
1925;SDS011;964;42.606;23.588;2022-09-28T13:30:39;1.60;;;1.47;;
1925;SDS011;964;42.606;23.588;2022-09-28T13:33:13;4.10;;;1.47;;
1925;SDS011;964;42.606;23.588;2022-09-28T13:35:44;1.60;;;1.50;;
1925;SDS011;964;42.606;23.588;2022-09-28T13:38:37;2.80;;;1.77;;
1925;SDS011;964;42.606;23.588;2022-09-28T13:41:14;1.93;;;1.67;;
1925;SDS011;964;42.606;23.588;2022-09-28T13:43:52;2.07;;;1.87;;
1925;SDS011;964;42.606;23.588;2022-09-28T13:46:33;2.87;;;1.90;;
1925;SDS011;964;42.606;23.588;2022-09-28T13:49:12;2.67;;;2.03;;
1925;SDS011;964;42.606;23.588;2022-09-28T13:51:59;3.43;;;1.67;;
1925;SDS011;964;42.606;23.588;2022-09-28T13:54:40;3.60;;;1.93;;
1925;SDS011;964;42.606;23.588;2022-09-28T13:57:20;2.67;;;1.70;;
1925;SDS011;964;42.606;23.588;2022-09-28T13:59:56;3.73;;;1.90;;
1925;SDS011;964;42.606;23.588;2022-09-28T14:02:30;3.60;;;1.77;;
1925;SDS011;964;42.606;23.588;2022-09-28T14:05:03;1.30;;;1.20;;
1925;SDS011;964;42.606;23.588;2022-09-28T14:07:57;2.53;;;1.47;;
1925;SDS011;964;42.606;23.588;2022-09-28T14:10:45;1.40;;;1.30;;
1925;SDS011;964;42.606;23.588;2022-09-28T14:16:24;1.80;;;1.37;;
1925;SDS011;964;42.606;23.588;2022-09-28T14:18:53;2.77;;;1.60;;
1925;SDS011;964;42.606;23.588;2022-09-28T14:24:31;1.70;;;1.60;;
1925;SDS011;964;42.606;23.588;2022-09-28T14:27:22;3.20;;;1.50;;
1925;SDS011;964;42.606;23.588;2022-09-28T14:30:15;5.10;;;2.10;;
1925;SDS011;964;42.606;23.588;2022-09-28T14:32:47;6.20;;;2.00;;
1925;SDS011;964;42.606;23.588;2022-09-28T14:35:27;4.23;;;1.70;;
1925;SDS011;964;42.606;23.588;2022-09-28T14:38:04;3.33;;;1.97;;
1925;SDS011;964;42.606;23.588;2022-09-28T14:40:59;4.83;;;2.93;;
1925;SDS011;964;42.606;23.588;2022-09-28T14:43:35;3.80;;;3.50;;
1925;SDS011;964;42.606;23.588;2022-09-28T14:46:28;7.97;;;2.27;;
1925;SDS011;964;42.606;23.588;2022-09-28T14:49:04;3.23;;;2.17;;
1925;SDS011;964;42.606;23.588;2022-09-28T14:54:41;4.00;;;2.20;;
1925;SDS011;964;42.606;23.588;2022-09-28T14:57:17;3.90;;;1.90;;
1925;SDS011;964;42.606;23.588;2022-09-28T14:59:46;2.70;;;1.70;;
1925;SDS011;964;42.606;23.588;2022-09-28T15:02:16;4.73;;;1.80;;
1925;SDS011;964;42.606;23.588;2022-09-28T15:04:48;1.87;;;1.50;;
1925;SDS011;964;42.606;23.588;2022-09-28T15:07:18;3.73;;;1.40;;
1925;SDS011;964;42.606;23.588;2022-09-28T15:09:48;1.40;;;1.30;;
1925;SDS011;964;42.606;23.588;2022-09-28T15:12:16;2.10;;;1.30;;
1925;SDS011;964;42.606;23.588;2022-09-28T15:14:46;1.30;;;1.13;;
1925;SDS011;964;42.606;23.588;2022-09-28T15:17:20;2.90;;;1.47;;
1925;SDS011;964;42.606;23.588;2022-09-28T15:22:48;1.20;;;1.10;;
1925;SDS011;964;42.606;23.588;2022-09-28T15:25:17;3.73;;;1.30;;
1925;SDS011;964;42.606;23.588;2022-09-28T15:27:50;2.50;;;1.83;;
1925;SDS011;964;42.606;23.588;2022-09-28T15:30:22;3.57;;;1.30;;
1925;SDS011;964;42.606;23.588;2022-09-28T15:32:51;3.70;;;1.20;;
1925;SDS011;964;42.606;23.588;2022-09-28T15:35:21;2.60;;;1.10;;
1925;SDS011;964;42.606;23.588;2022-09-28T15:37:50;1.97;;;1.03;;
1925;SDS011;964;42.606;23.588;2022-09-28T15:40:21;1.10;;;1.00;;
1925;SDS011;964;42.606;23.588;2022-09-28T15:42:56;1.90;;;1.10;;
1925;SDS011;964;42.606;23.588;2022-09-28T15:45:24;4.37;;;1.20;;
1925;SDS011;964;42.606;23.588;2022-09-28T15:47:55;2.67;;;1.13;;
1925;SDS011;964;42.606;23.588;2022-09-28T15:50:55;1.73;;;1.00;;
1925;SDS011;964;42.606;23.588;2022-09-28T15:53:24;10.70;;;1.73;;
1925;SDS011;964;42.606;23.588;2022-09-28T15:55:56;12.23;;;1.60;;
1925;SDS011;964;42.606;23.588;2022-09-28T15:58:27;3.33;;;1.30;;
1925;SDS011;964;42.606;23.588;2022-09-28T16:03:59;5.33;;;1.53;;
1925;SDS011;964;42.606;23.588;2022-09-28T16:06:57;4.03;;;3.20;;
1925;SDS011;964;42.606;23.588;2022-09-28T16:09:30;10.30;;;6.50;;
1925;SDS011;964;42.606;23.588;2022-09-28T16:11:59;11.97;;;6.60;;
1925;SDS011;964;42.606;23.588;2022-09-28T16:14:35;10.80;;;6.80;;